This is the latest recevied weather packets stored in our database for station/object K2RMB. If no packets are shown the sender has not sent any weather packets the latest 10 day(s).
| Time | Temp. | Humidity | Pressure | Rain* | Wind** | Luminosity | Snow |
|---|---|---|---|---|---|---|---|
| 1777867148 | 5.56° C | 63% | 1011.5 hPa | 0 mm | - | 0 W/m² | - |
| 1777866845 | 6.11° C | 63% | 1011.5 hPa | 0 mm | - | 0 W/m² | - |
| 1777866542 | 6.11° C | 61% | 1011.5 hPa | 0 mm | - | 0 W/m² | - |
| 1777865028 | 6.67° C | 61% | 1011.1 hPa | 0 mm | - | 0 W/m² | - |
| 1777847750 | 10° C | 36% | 1009.3 hPa | 0 mm | - | 44 W/m² | - |
| 1777847445 | 10.56° C | 36% | 1009.3 hPa | 0 mm | - | 48 W/m² | - |
| 1777847144 | 10.56° C | 37% | 1009.3 hPa | 0 mm | - | 59 W/m² | - |
| 1777846841 | 10.56° C | 36% | 1009 hPa | 0 mm | - | 89 W/m² | - |
| 1777846539 | 10.56° C | 37% | 1009 hPa | 0 mm | - | 111 W/m² | - |
| 1777845326 | 10.56° C | 37% | 1009 hPa | 0 mm | - | 225 W/m² | - |
| 1777844722 | 10° C | 39% | 1009 hPa | 0 mm | - | 87 W/m² | - |
| 1777843813 | 10° C | 38% | 1009 hPa | 0 mm | - | 110 W/m² | - |
| 1777842600 | 10° C | 38% | 1009 hPa | 0 mm | - | 240 W/m² | - |
| 1777840483 | 9.44° C | 40% | 1009.8 hPa | 0 mm | - | 688 W/m² | - |
| 1777839877 | 8.89° C | 43% | 1009.3 hPa | 0 mm | - | 329 W/m² | - |
| 1777839576 | 9.44° C | 41% | 1009.3 hPa | 0 mm | - | 211 W/m² | - |
| 1777834417 | 7.78° C | 42% | 1010.1 hPa | 0 mm | - | 284 W/m² | - |
| 1777833813 | 8.33° C | 42% | 1010.1 hPa | 0 mm | - | 304 W/m² | - |
| 1777833206 | 8.33° C | 43% | 1009.8 hPa | 0 mm | - | 279 W/m² | - |
| 1777832603 | 7.78° C | 42% | 1010.1 hPa | 0 mm | - | 417 W/m² | - |
| 1777831996 | 7.78° C | 44% | 1010.1 hPa | 0 mm | - | 440 W/m² | - |
| 1777831693 | 7.78° C | 44% | 1010.1 hPa | 0 mm | - | 276 W/m² | - |
| 1777829273 | 7.78° C | 45% | 1010.1 hPa | 0 mm | - | 424 W/m² | - |
| 1777827151 | 7.22° C | 47% | 1009.8 hPa | 0 mm | - | 206 W/m² | - |
| 1777826847 | 7.22° C | 51% | 1009.8 hPa | 0 mm | - | 501 W/m² | - |
* Rain latest hour (hover to see other rain measurements)
** Current wind speed in m/s (hover to see current wind gust speed)